createdAt,value
2018-04-28T00:00:11.969Z,8.15
2018-04-28T00:01:12.181Z,8.10
2018-04-28T00:02:12.385Z,8.08
2018-04-28T00:03:12.603Z,8.07
2018-04-28T00:04:12.811Z,8.12
2018-04-28T00:05:13.027Z,8.20
2018-04-28T00:06:14.793Z,8.15
2018-04-28T00:07:13.376Z,8.18
2018-04-28T00:08:15.299Z,8.17
2018-04-28T00:09:13.766Z,8.18
2018-04-28T00:10:13.988Z,8.22
2018-04-28T00:11:14.192Z,8.21
2018-04-28T00:12:16.315Z,8.22
2018-04-28T00:13:16.287Z,8.26
2018-04-28T00:14:14.739Z,8.21
2018-04-28T00:15:14.945Z,8.20
2018-04-28T00:16:16.789Z,8.20
2018-04-28T00:17:15.363Z,8.12
2018-04-28T00:18:15.579Z,8.12
2018-04-28T00:19:15.783Z,8.08
2018-04-28T00:20:16.002Z,7.97
2018-04-28T00:21:16.217Z,8.02
2018-04-28T00:22:16.423Z,7.85
2018-04-28T00:23:16.639Z,7.87
2018-04-28T00:24:16.842Z,7.89
2018-04-28T00:25:17.050Z,7.89
2018-04-28T00:26:17.274Z,7.87
2018-04-28T00:27:17.477Z,7.82
2018-04-28T00:28:17.680Z,7.82
2018-04-28T00:29:17.897Z,7.85
2018-04-28T00:30:20.790Z,7.72
2018-04-28T00:31:18.252Z,7.58
2018-04-28T00:32:18.466Z,7.69
2018-04-28T00:33:21.307Z,7.49
2018-04-28T00:34:18.901Z,7.52
2018-04-28T00:35:19.113Z,7.53
2018-04-28T00:36:19.322Z,7.50
2018-04-28T00:37:19.528Z,7.50
2018-04-28T00:38:19.756Z,7.55
2018-04-28T00:39:21.798Z,7.53
2018-04-28T00:40:21.790Z,7.50
2018-04-28T00:41:20.251Z,7.52
2018-04-28T00:42:20.455Z,7.53
2018-04-28T00:43:20.664Z,7.60
2018-04-28T00:44:20.871Z,7.53
2018-04-28T00:45:21.081Z,7.58
2018-04-28T00:46:22.785Z,7.58
2018-04-28T00:47:21.493Z,7.55
2018-04-28T00:48:25.283Z,7.53
2018-04-28T00:49:21.874Z,7.50
2018-04-28T00:50:22.084Z,7.49
2018-04-28T00:51:22.308Z,7.49
2018-04-28T00:52:25.297Z,7.49
2018-04-28T00:53:25.318Z,7.53
2018-04-28T00:54:22.910Z,7.50
2018-04-28T00:55:24.788Z,7.52
2018-04-28T00:56:24.794Z,7.49
2018-04-28T00:57:23.384Z,7.50
2018-04-28T00:58:23.614Z,7.53
2018-04-28T00:59:25.842Z,7.44
2018-04-28T01:00:24.037Z,7.56
2018-04-28T01:01:24.237Z,7.56
2018-04-28T01:02:24.346Z,7.53
2018-04-28T01:03:26.295Z,7.56
2018-04-28T01:04:24.769Z,7.50
2018-04-28T01:05:28.802Z,7.56
2018-04-28T01:06:25.146Z,7.58
2018-04-28T01:07:27.319Z,7.63
2018-04-28T01:08:25.507Z,7.69
2018-04-28T01:09:27.292Z,7.71
2018-04-28T01:10:25.877Z,7.69
2018-04-28T01:11:26.098Z,7.71
2018-04-28T01:12:26.354Z,7.58
2018-04-28T01:13:26.510Z,7.69
2018-04-28T01:14:26.746Z,7.58
2018-04-28T01:15:26.841Z,7.63
2018-04-28T01:16:27.044Z,7.63
2018-04-28T01:17:27.256Z,7.55
2018-04-28T01:18:30.287Z,7.50
2018-04-28T01:19:27.632Z,7.62
2018-04-28T01:20:30.792Z,7.62
2018-04-28T01:21:29.815Z,7.56
2018-04-28T01:22:28.141Z,7.63
2018-04-28T01:23:28.350Z,7.59
2018-04-28T01:24:28.557Z,7.66
2018-04-28T01:25:28.802Z,7.66
2018-04-28T01:26:30.793Z,7.66
2018-04-28T01:27:29.132Z,7.60
2018-04-28T01:28:29.349Z,7.63
2018-04-28T01:29:29.551Z,7.63
2018-04-28T01:30:29.759Z,7.71
2018-04-28T01:31:29.978Z,7.72
2018-04-28T01:32:30.180Z,7.77
2018-04-28T01:33:34.297Z,7.66
2018-04-28T01:34:30.515Z,7.69
2018-04-28T01:35:30.724Z,7.58
2018-04-28T01:36:30.931Z,7.63
2018-04-28T01:37:31.150Z,7.55
2018-04-28T01:38:31.355Z,7.60
2018-04-28T01:39:31.569Z,7.52
2018-04-28T01:40:31.784Z,7.59
2018-04-28T01:41:31.985Z,7.58
2018-04-28T01:42:32.208Z,7.71
2018-04-28T01:43:32.409Z,7.72
2018-04-28T01:44:32.619Z,7.74
2018-04-28T01:45:32.833Z,7.71
2018-04-28T01:46:33.040Z,7.66
2018-04-28T01:47:33.258Z,7.62
2018-04-28T01:48:33.475Z,7.58
2018-04-28T01:49:35.327Z,7.63
2018-04-28T01:50:35.786Z,7.66
2018-04-28T01:51:34.006Z,7.63
2018-04-28T01:52:34.264Z,7.67
2018-04-28T01:53:36.287Z,7.69
2018-04-28T01:54:34.501Z,7.59
2018-04-28T01:55:34.709Z,7.58
2018-04-28T01:56:36.805Z,7.60
2018-04-28T01:57:35.135Z,7.62
2018-04-28T01:58:35.335Z,7.55
2018-04-28T01:59:35.553Z,7.50
2018-04-28T02:00:35.794Z,7.50
2018-04-28T02:01:35.976Z,7.56
2018-04-28T02:02:36.191Z,7.35
2018-04-28T02:03:36.393Z,7.44
2018-04-28T02:04:36.598Z,7.45
2018-04-28T02:05:38.820Z,7.38
2018-04-28T02:06:37.025Z,7.35
2018-04-28T02:07:40.784Z,7.41
2018-04-28T02:08:37.362Z,7.37
2018-04-28T02:09:37.560Z,7.19
2018-04-28T02:10:41.301Z,7.05
2018-04-28T02:11:40.795Z,7.05
2018-04-28T02:12:37.990Z,7.05
2018-04-28T02:13:38.209Z,7.05
2018-04-28T02:14:40.295Z,7.07
2018-04-28T02:15:38.635Z,7.04
2018-04-28T02:16:38.837Z,7.01
2018-04-28T02:17:39.055Z,7.09
2018-04-28T02:18:39.261Z,6.98
2018-04-28T02:19:39.463Z,7.02
2018-04-28T02:20:41.286Z,7.08
2018-04-28T02:21:39.867Z,6.95
2018-04-28T02:22:40.084Z,6.95
2018-04-28T02:23:41.798Z,6.97
2018-04-28T02:24:40.501Z,7.01
2018-04-28T02:25:40.709Z,6.89
2018-04-28T02:26:40.944Z,6.90
2018-04-28T02:27:41.160Z,6.89
2018-04-28T02:28:43.286Z,6.83
2018-04-28T02:29:41.487Z,6.90
2018-04-28T02:30:43.308Z,6.79
2018-04-28T02:31:41.907Z,6.73
2018-04-28T02:32:42.121Z,6.89
2018-04-28T02:33:44.292Z,6.86
2018-04-28T02:34:44.339Z,6.94
2018-04-28T02:35:42.641Z,6.98
2018-04-28T02:36:42.856Z,6.97
2018-04-28T02:37:43.091Z,6.94
2018-04-28T02:38:43.296Z,6.87
2018-04-28T02:39:43.497Z,6.94
2018-04-28T02:40:46.287Z,6.97
2018-04-28T02:41:45.829Z,6.98
2018-04-28T02:42:45.785Z,6.91
2018-04-28T02:43:44.172Z,6.94
2018-04-28T02:44:44.346Z,6.91
2018-04-28T02:45:46.323Z,7.04
2018-04-28T02:46:44.771Z,7.04
2018-04-28T02:47:44.985Z,6.99
2018-04-28T02:48:45.199Z,7.01
2018-04-28T02:49:45.405Z,7.01
2018-04-28T02:50:45.624Z,7.02
2018-04-28T02:51:48.798Z,7.05
2018-04-28T02:52:46.001Z,6.95
2018-04-28T02:53:46.227Z,7.05
2018-04-28T02:54:46.421Z,7.01
2018-04-28T02:55:46.650Z,6.95
2018-04-28T02:56:46.745Z,6.99
2018-04-28T02:57:48.808Z,7.01
2018-04-28T02:58:47.172Z,6.95
2018-04-28T02:59:48.804Z,7.08
2018-04-28T03:00:49.289Z,7.08
2018-04-28T03:01:47.641Z,7.08
2018-04-28T03:02:51.782Z,7.07
2018-04-28T03:03:48.019Z,7.05
2018-04-28T03:04:48.221Z,7.05
2018-04-28T03:05:48.429Z,7.08
2018-04-28T03:06:48.674Z,6.97
2018-04-28T03:07:48.857Z,7.04
2018-04-28T03:08:50.823Z,7.07
2018-04-28T03:09:50.795Z,6.97
2018-04-28T03:10:49.509Z,7.01
2018-04-28T03:11:51.314Z,7.01
2018-04-28T03:12:51.792Z,6.94
2018-04-28T03:13:52.793Z,7.04
2018-04-28T03:14:50.125Z,7.02
2018-04-28T03:15:50.330Z,7.04
2018-04-28T03:16:50.566Z,7.09
2018-04-28T03:17:50.775Z,7.09
2018-04-28T03:18:54.800Z,7.12
2018-04-28T03:19:52.792Z,7.04
2018-04-28T03:20:53.784Z,7.07
2018-04-28T03:21:54.326Z,6.97
2018-04-28T03:22:54.288Z,7.04
2018-04-28T03:23:51.739Z,7.04
2018-04-28T03:24:51.958Z,7.05
2018-04-28T03:25:52.197Z,7.09
2018-04-28T03:26:54.315Z,7.15
2018-04-28T03:27:52.533Z,7.07
2018-04-28T03:28:52.747Z,7.05
2018-04-28T03:29:52.960Z,7.07
2018-04-28T03:30:53.166Z,7.05
2018-04-28T03:31:53.386Z,7.04
2018-04-28T03:32:53.586Z,7.08
2018-04-28T03:33:53.796Z,7.08
2018-04-28T03:34:55.786Z,7.05
2018-04-28T03:35:54.143Z,7.15
2018-04-28T03:36:56.284Z,7.07
2018-04-28T03:37:54.507Z,7.13
2018-04-28T03:38:57.294Z,6.95
2018-04-28T03:39:56.788Z,7.04
2018-04-28T03:40:54.996Z,6.89
2018-04-28T03:41:55.212Z,6.86
2018-04-28T03:42:55.419Z,6.79
2018-04-28T03:43:57.311Z,6.66
2018-04-28T03:44:55.784Z,6.79
2018-04-28T03:45:56.017Z,6.65
2018-04-28T03:46:56.223Z,6.53
2018-04-28T03:47:56.412Z,6.62
2018-04-28T03:48:56.628Z,6.50
2018-04-28T03:49:56.849Z,6.48
2018-04-28T03:50:58.745Z,6.59
2018-04-28T03:51:57.213Z,6.50
2018-04-28T03:52:57.416Z,6.50
2018-04-28T03:53:57.642Z,6.51
2018-04-28T03:54:57.742Z,6.62
2018-04-28T03:55:57.944Z,6.58
2018-04-28T03:56:58.160Z,6.66
2018-04-28T03:58:00.284Z,6.59
2018-04-28T03:58:58.486Z,6.65
2018-04-28T04:00:00.308Z,6.61
2018-04-28T04:00:58.887Z,6.61
2018-04-28T04:02:00.791Z,6.59
2018-04-28T04:02:59.277Z,6.65
2018-04-28T04:03:59.497Z,6.61
2018-04-28T04:04:59.693Z,6.53
2018-04-28T04:05:59.891Z,6.56
2018-04-28T04:07:01.795Z,6.59
2018-04-28T04:08:00.242Z,6.46
2018-04-28T04:09:00.465Z,6.51
2018-04-28T04:10:00.689Z,6.51
2018-04-28T04:11:00.900Z,6.47
2018-04-28T04:12:01.130Z,6.50
2018-04-28T04:13:01.347Z,6.47
2018-04-28T04:14:01.555Z,6.46
2018-04-28T04:15:01.768Z,6.44
2018-04-28T04:16:01.975Z,6.43
2018-04-28T04:17:02.187Z,6.41
2018-04-28T04:18:02.404Z,6.46
2018-04-28T04:19:02.607Z,6.40
2018-04-28T04:20:02.822Z,6.38
2018-04-28T04:21:03.045Z,6.46
2018-04-28T04:22:03.246Z,6.35
2018-04-28T04:23:03.454Z,6.35
2018-04-28T04:24:03.668Z,6.35
2018-04-28T04:25:03.894Z,6.46
2018-04-28T04:26:04.002Z,6.50
2018-04-28T04:27:04.204Z,6.56
2018-04-28T04:28:06.281Z,6.53
2018-04-28T04:29:04.637Z,6.53
2018-04-28T04:30:06.783Z,6.66
2018-04-28T04:31:05.007Z,6.69
2018-04-28T04:32:05.211Z,6.80
2018-04-28T04:33:05.442Z,6.76
2018-04-28T04:34:06.626Z,6.76
2018-04-28T04:35:05.838Z,6.79
2018-04-28T04:36:07.803Z,6.79
2018-04-28T04:37:07.300Z,6.81
2018-04-28T04:38:08.312Z,6.97
2018-04-28T04:39:06.619Z,6.89
2018-04-28T04:40:08.791Z,6.76
2018-04-28T04:41:07.009Z,6.99
2018-04-28T04:42:07.224Z,6.91
2018-04-28T04:43:07.439Z,6.89
2018-04-28T04:44:07.559Z,6.95
2018-04-28T04:45:07.788Z,6.91
2018-04-28T04:46:08.004Z,6.98
2018-04-28T04:47:08.212Z,7.05
2018-04-28T04:48:08.422Z,6.98
2018-04-28T04:49:10.306Z,7.09
2018-04-28T04:50:13.289Z,7.05
2018-04-28T04:51:08.909Z,7.17
2018-04-28T04:52:09.097Z,7.04
2018-04-28T04:53:09.324Z,7.17
2018-04-28T04:54:09.523Z,7.20
2018-04-28T04:55:11.292Z,7.23
2018-04-28T04:56:09.938Z,7.22
2018-04-28T04:57:11.792Z,7.19
2018-04-28T04:58:10.142Z,7.08
2018-04-28T04:59:10.344Z,7.08
2018-04-28T05:00:10.562Z,7.08
2018-04-28T05:01:10.792Z,7.16
2018-04-28T05:02:10.986Z,7.12
2018-04-28T05:03:11.187Z,7.15
2018-04-28T05:04:13.334Z,7.17
2018-04-28T05:05:11.635Z,7.23
2018-04-28T05:06:11.832Z,7.31
2018-04-28T05:07:12.043Z,7.41
2018-04-28T05:08:12.265Z,7.37
2018-04-28T05:09:14.289Z,7.55
2018-04-28T05:10:14.286Z,7.66
2018-04-28T05:11:12.756Z,7.66
2018-04-28T05:12:14.793Z,7.79
2018-04-28T05:13:13.113Z,7.93
2018-04-28T05:14:13.338Z,7.97
2018-04-28T05:15:13.558Z,7.90
2018-04-28T05:16:13.765Z,7.97
2018-04-28T05:17:13.973Z,8.12
2018-04-28T05:18:14.185Z,8.20
2018-04-28T05:19:14.410Z,8.28
2018-04-28T05:20:14.611Z,8.40
2018-04-28T05:21:14.828Z,8.42
2018-04-28T05:22:17.798Z,8.47
2018-04-28T05:23:15.270Z,8.48
2018-04-28T05:24:15.481Z,8.79
2018-04-28T05:25:17.304Z,8.94
2018-04-28T05:26:15.904Z,9.24
2018-04-28T05:27:17.788Z,9.52
2018-04-28T05:28:16.263Z,9.85
2018-04-28T05:29:18.293Z,10.03
2018-04-28T05:30:16.622Z,10.37
2018-04-28T05:31:16.839Z,10.33
2018-04-28T05:32:18.797Z,10.95
2018-04-28T05:33:17.245Z,11.53
2018-04-28T05:34:17.480Z,11.96
2018-04-28T05:35:17.684Z,12.11
2018-04-28T05:36:17.813Z,12.37
2018-04-28T05:37:17.909Z,12.64
2018-04-28T05:38:18.119Z,13.00
2018-04-28T05:39:18.333Z,12.95
2018-04-28T05:40:20.286Z,13.15
2018-04-28T05:41:18.743Z,13.43
2018-04-28T05:42:18.960Z,13.63
2018-04-28T05:43:19.173Z,13.77
2018-04-28T05:44:19.382Z,14.10
2018-04-28T05:45:19.601Z,14.37
2018-04-28T05:46:19.818Z,14.68
2018-04-28T05:47:21.789Z,14.90
2018-04-28T05:48:20.283Z,14.84
2018-04-28T05:49:20.470Z,14.69
2018-04-28T05:50:20.682Z,14.74
2018-04-28T05:51:22.787Z,15.09
2018-04-28T05:52:21.137Z,15.35
2018-04-28T05:53:21.349Z,15.56
2018-04-28T05:54:21.560Z,15.70
2018-04-28T05:55:21.771Z,15.89
2018-04-28T05:56:21.983Z,16.00
2018-04-28T05:57:22.192Z,16.45
2018-04-28T05:58:22.414Z,16.62
2018-04-28T05:59:22.619Z,16.77
2018-04-28T06:00:24.785Z,16.67
2018-04-28T06:01:22.999Z,16.58
2018-04-28T06:02:24.818Z,16.42
2018-04-28T06:03:23.387Z,15.82
2018-04-28T06:04:23.594Z,15.92
2018-04-28T06:05:23.811Z,15.89
2018-04-28T06:06:24.022Z,16.20
2018-04-28T06:07:24.239Z,16.42
2018-04-28T06:08:24.469Z,16.59
2018-04-28T06:09:25.542Z,17.00
2018-04-28T06:10:26.788Z,17.13
2018-04-28T06:11:25.009Z,17.54
2018-04-28T06:12:27.790Z,17.53
2018-04-28T06:13:25.389Z,17.74
2018-04-28T06:14:25.638Z,18.03
2018-04-28T06:15:25.825Z,18.17
2018-04-28T06:16:26.038Z,18.33
2018-04-28T06:17:26.257Z,18.70
2018-04-28T06:18:26.466Z,19.05
2018-04-28T06:19:26.680Z,19.31
2018-04-28T06:20:26.905Z,19.29
2018-04-28T06:21:27.103Z,19.39
2018-04-28T06:22:27.325Z,19.78
2018-04-28T06:23:27.552Z,19.98
2018-04-28T06:24:27.762Z,20.38
2018-04-28T06:25:27.999Z,20.47
2018-04-28T06:26:28.211Z,20.80
2018-04-28T06:27:28.425Z,21.13
2018-04-28T06:28:28.648Z,21.24
2018-04-28T06:29:28.867Z,20.79
2018-04-28T06:30:30.797Z,20.98
2018-04-28T06:31:29.264Z,20.81
2018-04-28T06:32:29.483Z,20.83
2018-04-28T06:33:29.709Z,20.96
2018-04-28T06:34:29.935Z,20.95
2018-04-28T06:35:30.153Z,21.14
2018-04-28T06:36:30.385Z,21.35
2018-04-28T06:37:30.685Z,21.48
2018-04-28T06:38:33.815Z,21.17
2018-04-28T06:39:31.009Z,21.46
2018-04-28T06:40:31.255Z,21.83
2018-04-28T06:41:31.454Z,21.90
2018-04-28T06:42:31.715Z,21.99
2018-04-28T06:43:31.822Z,22.27
2018-04-28T06:44:32.045Z,22.56
2018-04-28T06:45:33.791Z,22.46
2018-04-28T06:46:34.292Z,22.71
2018-04-28T06:47:32.654Z,22.27
2018-04-28T06:48:34.803Z,22.20
2018-04-28T06:49:33.021Z,21.79
2018-04-28T06:50:38.820Z,22.10
2018-04-28T06:51:33.421Z,22.01
2018-04-28T06:52:35.295Z,22.34
2018-04-28T06:53:35.510Z,22.57
2018-04-28T06:54:41.798Z,22.69
2018-04-28T06:55:34.128Z,22.69
2018-04-28T06:56:34.346Z,22.72
2018-04-28T06:57:37.301Z,22.38
2018-04-28T06:58:34.839Z,22.12
2018-04-28T06:59:35.007Z,22.56
2018-04-28T07:00:41.232Z,22.43
2018-04-28T07:01:37.303Z,21.54
2018-04-28T07:02:37.318Z,21.50
2018-04-28T07:03:37.312Z,20.86
2018-04-28T07:04:37.906Z,21.21
2018-04-28T07:05:36.078Z,21.26
2018-04-28T07:06:36.320Z,21.05
2018-04-28T07:07:38.301Z,21.30
2018-04-28T07:08:40.292Z,20.93
2018-04-28T07:09:38.031Z,20.39
2018-04-28T07:10:40.802Z,20.58
2018-04-28T07:11:39.345Z,20.74
2018-04-28T07:12:37.630Z,21.41
2018-04-28T07:13:37.831Z,21.50
2018-04-28T07:14:39.811Z,21.60
2018-04-28T07:15:43.794Z,20.99
2018-04-28T07:16:38.303Z,21.51
2018-04-28T07:17:42.291Z,20.96
2018-04-28T07:18:38.633Z,20.34
2018-04-28T07:19:38.852Z,20.74
2018-04-28T07:20:39.072Z,20.12
2018-04-28T07:21:40.813Z,19.69
2018-04-28T07:22:41.308Z,19.32
2018-04-28T07:23:39.784Z,19.55
2018-04-28T07:24:40.037Z,19.98
2018-04-28T07:25:40.151Z,20.39
2018-04-28T07:26:44.310Z,20.47
2018-04-28T07:27:42.338Z,21.27
2018-04-28T07:28:40.713Z,20.71
2018-04-28T07:29:40.907Z,20.28
2018-04-28T07:30:42.849Z,20.69
2018-04-28T07:31:43.307Z,20.46
2018-04-28T07:32:41.545Z,20.46
2018-04-28T07:33:45.308Z,20.69
2018-04-28T07:34:41.901Z,20.93
2018-04-28T07:35:42.124Z,21.11
2018-04-28T07:36:42.253Z,21.51
2018-04-28T07:37:42.482Z,21.66
2018-04-28T07:38:44.301Z,21.85
2018-04-28T07:39:44.794Z,21.72
2018-04-28T07:40:45.804Z,21.60
2018-04-28T07:41:43.295Z,21.79
2018-04-28T07:42:45.310Z,22.25
2018-04-28T07:43:45.342Z,22.16
2018-04-28T07:44:43.806Z,21.83
2018-04-28T07:45:45.830Z,21.97
2018-04-28T07:46:44.194Z,22.12
2018-04-28T07:47:45.446Z,22.52
2018-04-28T07:48:48.337Z,22.38
2018-04-28T07:49:45.774Z,22.49
2018-04-28T07:50:46.798Z,23.11
2018-04-28T07:51:45.177Z,22.38
2018-04-28T07:52:45.453Z,22.27
2018-04-28T07:53:45.563Z,22.32
2018-04-28T07:54:46.758Z,21.98
2018-04-28T07:55:46.009Z,21.76
2018-04-28T07:56:47.814Z,22.04
2018-04-28T07:57:46.444Z,22.13
2018-04-28T07:58:46.556Z,22.90
2018-04-28T07:59:46.832Z,23.34
2018-04-28T08:00:48.805Z,23.62
2018-04-28T08:01:48.208Z,24.14
2018-04-28T08:02:49.335Z,24.10
2018-04-28T08:03:53.305Z,23.89
2018-04-28T08:04:54.300Z,23.57
2018-04-28T08:05:51.805Z,23.98
2018-04-28T08:06:50.832Z,24.02
2018-04-28T08:07:51.796Z,23.97
2018-04-28T08:08:50.308Z,23.52
2018-04-28T08:09:48.544Z,23.29
2018-04-28T08:10:50.312Z,23.49
2018-04-28T08:11:50.847Z,23.64
2018-04-28T08:12:49.093Z,23.89
2018-04-28T08:13:49.320Z,24.02
2018-04-28T08:14:51.308Z,23.61
2018-04-28T08:15:51.331Z,23.43
2018-04-28T08:16:51.855Z,23.53
2018-04-28T08:17:51.833Z,23.55
2018-04-28T08:18:50.430Z,23.43
2018-04-28T08:19:50.650Z,23.23
2018-04-28T08:20:52.800Z,23.42
2018-04-28T08:21:51.028Z,23.94
2018-04-28T08:22:51.279Z,24.37
2018-04-28T08:23:53.299Z,24.34
2018-04-28T08:24:52.637Z,23.98
2018-04-28T08:25:55.299Z,23.50
2018-04-28T08:26:51.956Z,22.97
2018-04-28T08:27:52.187Z,22.43
2018-04-28T08:28:53.458Z,22.92
2018-04-28T08:29:53.315Z,22.87
2018-04-28T08:30:56.303Z,23.09
2018-04-28T08:31:55.802Z,23.55
2018-04-28T08:32:53.272Z,23.67
2018-04-28T08:33:57.300Z,23.52
2018-04-28T08:34:53.661Z,23.31
2018-04-28T08:35:53.900Z,23.31
2018-04-28T08:36:54.188Z,23.62
2018-04-28T08:37:56.355Z,24.10
2018-04-28T08:38:54.570Z,23.90
2018-04-28T08:39:56.311Z,23.77
2018-04-28T08:40:55.307Z,23.50
2018-04-28T08:41:56.810Z,23.35
2018-04-28T08:43:02.832Z,23.53
2018-04-28T08:43:55.450Z,23.77
2018-04-28T08:44:55.566Z,24.56
2018-04-28T08:45:57.316Z,24.75
2018-04-28T08:46:57.809Z,25.16
2018-04-28T08:47:56.170Z,24.82
2018-04-28T08:48:58.320Z,24.54
2018-04-28T08:49:58.317Z,24.95
2018-04-28T08:50:57.805Z,24.85
2018-04-28T08:53:28.910Z,24.87
2018-04-28T08:54:31.691Z,25.20
2018-04-28T08:55:31.876Z,24.47
2018-04-28T08:56:30.532Z,23.95
2018-04-28T08:57:29.652Z,23.45
2018-04-28T08:58:30.645Z,23.22
2018-04-28T08:59:32.683Z,22.90
2018-04-28T09:00:31.678Z,22.93
2018-04-28T09:01:32.193Z,23.26
2018-04-28T09:02:34.071Z,23.19
2018-04-28T09:03:30.768Z,22.84
2018-04-28T09:04:33.686Z,23.15
2018-04-28T09:05:31.061Z,22.87
2018-04-28T09:06:35.175Z,22.41
2018-04-28T09:07:31.428Z,22.68
2018-04-28T09:08:32.149Z,23.04
2018-04-28T09:09:31.766Z,23.31
2018-04-28T09:10:35.632Z,23.80
2018-04-28T09:11:33.695Z,24.08
2018-04-28T09:12:34.227Z,24.23
2018-04-28T09:13:32.479Z,24.32
2018-04-28T09:14:36.680Z,24.34
2018-04-28T09:15:35.687Z,24.17
2018-04-28T09:16:33.080Z,24.17
2018-04-28T09:17:33.196Z,24.73
2018-04-28T09:18:33.478Z,24.75
2018-04-28T09:19:35.270Z,24.47
2018-04-28T09:20:35.693Z,24.17
2018-04-28T09:21:33.929Z,24.19
2018-04-28T09:22:35.684Z,24.38
2018-04-28T09:23:34.289Z,24.41
2018-04-28T09:24:37.157Z,24.56
2018-04-28T09:25:39.704Z,24.57
2018-04-28T09:26:34.976Z,24.05
2018-04-28T09:27:57.188Z,23.72
2018-04-28T09:28:39.181Z,23.67
2018-04-28T09:29:36.184Z,24.13
2018-04-28T09:30:39.186Z,23.43
2018-04-28T09:31:37.694Z,23.92
2018-04-28T09:32:37.695Z,24.04
2018-04-28T09:33:41.697Z,24.26
2018-04-28T09:34:36.432Z,24.44
2018-04-28T09:35:36.532Z,24.34
2018-04-28T09:36:39.689Z,24.32
2018-04-28T09:37:38.684Z,24.61
2018-04-28T09:38:39.167Z,24.91
2018-04-28T09:39:39.181Z,24.16
2018-04-28T09:40:38.150Z,24.02
2018-04-28T09:41:39.700Z,24.02
2018-04-28T09:42:39.731Z,24.54
2018-04-28T09:43:39.071Z,24.19
2018-04-28T09:44:39.315Z,24.24
2018-04-28T09:45:38.540Z,24.50
2018-04-28T09:46:46.740Z,24.37
2018-04-28T09:47:38.981Z,24.97
2018-04-28T09:48:42.886Z,25.46
2018-04-28T09:49:39.451Z,25.75
2018-04-28T09:50:41.192Z,25.65
2018-04-28T09:51:39.798Z,25.77
2018-04-28T09:52:40.035Z,25.22
2018-04-28T09:53:42.249Z,25.31
2018-04-28T09:54:43.191Z,25.94
2018-04-28T09:55:42.185Z,25.52
2018-04-28T09:56:40.826Z,25.28
2018-04-28T09:57:42.743Z,24.87
2018-04-28T09:58:44.679Z,24.75
2018-04-28T09:59:41.277Z,24.27
2018-04-28T10:00:42.545Z,24.16
2018-04-28T10:01:43.186Z,24.23
2018-04-28T10:02:42.634Z,24.35
2018-04-28T10:03:42.000Z,24.71
2018-04-28T10:04:42.228Z,24.87
2018-04-28T10:05:46.184Z,25.17
2018-04-28T10:06:42.653Z,24.75
2018-04-28T10:07:43.919Z,24.83
2018-04-28T10:08:44.077Z,23.70
2018-04-28T10:09:44.727Z,23.79
2018-04-28T10:10:45.220Z,24.49
2018-04-28T10:11:43.582Z,24.31
2018-04-28T10:12:45.708Z,24.26
2018-04-28T10:13:46.697Z,24.82
2018-04-28T10:15:05.191Z,24.56
2018-04-28T10:15:44.392Z,23.92
2018-04-28T10:16:46.194Z,23.43
2018-04-28T10:17:44.842Z,23.86
2018-04-28T10:18:47.702Z,24.16
2018-04-28T10:19:48.687Z,24.75
2018-04-28T10:20:45.972Z,24.83
2018-04-28T10:21:47.188Z,24.01
2018-04-28T10:22:47.819Z,24.39
2018-04-28T10:23:49.694Z,24.39
2018-04-28T10:24:46.716Z,24.87
2018-04-28T10:25:46.376Z,25.24
2018-04-28T10:26:48.136Z,24.42
2018-04-28T10:27:46.777Z,24.75
2018-04-28T10:28:49.660Z,24.95
2018-04-28T10:29:48.687Z,24.24
2018-04-28T10:30:50.222Z,24.68
2018-04-28T10:31:47.441Z,24.42
2018-04-28T10:32:53.181Z,24.24
2018-04-28T10:33:49.724Z,23.77
2018-04-28T10:34:48.139Z,23.82
2018-04-28T10:35:48.246Z,23.29
2018-04-28T10:36:48.363Z,23.72
2018-04-28T10:37:49.584Z,23.55
2018-04-28T10:38:50.846Z,23.64
2018-04-28T10:39:48.962Z,23.27
2018-04-28T10:40:51.643Z,23.34
2018-04-28T10:41:51.196Z,23.61
2018-04-28T10:42:56.190Z,23.83
2018-04-28T10:43:49.772Z,24.05
2018-04-28T10:44:51.035Z,24.57
2018-04-28T10:45:52.636Z,24.17
2018-04-28T10:46:50.410Z,24.04
2018-04-28T10:47:50.632Z,24.35
2018-04-28T10:48:50.895Z,24.01
2018-04-28T10:49:51.076Z,23.98
2018-04-28T10:50:53.184Z,23.26
2018-04-28T10:51:53.235Z,23.49
2018-04-28T10:52:55.714Z,23.76
2018-04-28T10:53:53.722Z,23.67
2018-04-28T10:54:53.144Z,23.68
2018-04-28T10:55:53.404Z,23.34
2018-04-28T10:57:07.236Z,23.29
2018-04-28T10:57:54.705Z,23.61
2018-04-28T10:58:54.735Z,23.97
2018-04-28T10:59:56.697Z,24.35
2018-04-28T11:01:00.199Z,24.39
2018-04-28T11:01:57.186Z,24.34
2018-04-28T11:02:53.655Z,23.86
2018-04-28T11:03:53.876Z,23.62
2018-04-28T11:04:54.159Z,23.97
2018-04-28T11:05:56.186Z,24.54
2018-04-28T11:06:56.202Z,24.59
2018-04-28T11:07:54.701Z,24.68
2018-04-28T11:08:56.696Z,24.27
2018-04-28T11:09:55.042Z,23.83
2018-04-28T11:10:56.295Z,23.98
2018-04-28T11:11:55.409Z,24.10
2018-04-28T11:12:58.187Z,24.17
2018-04-28T11:13:58.701Z,24.13
2018-04-28T11:15:02.937Z,23.76
2018-04-28T11:15:57.686Z,23.35
2018-04-28T11:16:59.172Z,23.01
2018-04-28T11:17:58.192Z,22.75
2018-04-28T11:18:58.210Z,22.52
2018-04-28T11:19:58.264Z,22.59
2018-04-28T11:20:57.181Z,22.35
2018-04-28T11:21:57.305Z,23.09
2018-04-28T11:22:59.188Z,23.77
2018-04-28T11:23:57.797Z,24.39
2018-04-28T11:24:58.099Z,24.04
2018-04-28T11:26:05.195Z,23.62
2018-04-28T11:27:00.195Z,23.68
2018-04-28T11:27:58.546Z,23.47
2018-04-28T11:28:58.762Z,23.57
2018-04-28T11:30:00.687Z,23.87
2018-04-28T11:30:59.160Z,23.61
2018-04-28T11:31:59.408Z,23.22
2018-04-28T11:32:59.625Z,22.64
2018-04-28T11:33:59.823Z,22.12
2018-04-28T11:35:03.688Z,21.56
2018-04-28T11:36:00.287Z,21.63
2018-04-28T11:37:00.526Z,21.72
2018-04-28T11:38:02.191Z,21.79
2018-04-28T11:39:00.792Z,22.54
2018-04-28T11:40:01.014Z,22.68
2018-04-28T11:41:03.192Z,22.86
2018-04-28T11:42:03.220Z,22.92
2018-04-28T11:43:01.618Z,22.92
2018-04-28T11:44:01.723Z,23.11
2018-04-28T11:45:02.958Z,23.26
2018-04-28T11:46:02.189Z,23.34
2018-04-28T11:47:02.424Z,23.62
2018-04-28T11:48:03.655Z,23.79
2018-04-28T11:49:02.897Z,24.22
2018-04-28T11:50:10.702Z,23.82
2018-04-28T11:51:03.294Z,23.45
2018-04-28T11:52:25.517Z,23.40
2018-04-28T11:53:03.708Z,23.11
2018-04-28T11:54:04.959Z,22.56
2018-04-28T11:55:05.695Z,22.31
2018-04-28T11:56:08.387Z,22.01
2018-04-28T11:57:04.524Z,22.37
2018-04-28T11:58:08.202Z,22.52
2018-04-28T11:59:06.733Z,22.53
2018-04-28T12:00:06.082Z,22.59
2018-04-28T12:01:05.191Z,22.92
2018-04-28T12:02:07.203Z,22.87
2018-04-28T12:03:05.537Z,22.78
2018-04-28T12:04:08.725Z,22.71
2018-04-28T12:05:06.970Z,22.43
2018-04-28T12:06:09.701Z,22.31
2018-04-28T12:07:06.339Z,22.50
2018-04-28T12:08:07.534Z,22.54
2018-04-28T12:09:08.699Z,22.59
2018-04-28T12:10:10.690Z,22.50
2018-04-28T12:11:07.170Z,22.41
2018-04-28T12:12:07.384Z,22.71
2018-04-28T12:13:07.608Z,22.68
2018-04-28T12:14:07.824Z,22.68
2018-04-28T12:15:09.730Z,22.44
2018-04-28T12:16:10.194Z,22.54
2018-04-28T12:17:08.415Z,23.32
2018-04-28T12:18:08.647Z,23.83
2018-04-28T12:19:10.708Z,24.16
2018-04-28T12:20:09.043Z,24.56
2018-04-28T12:21:09.381Z,24.04
2018-04-28T12:22:12.226Z,23.80
2018-04-28T12:23:17.204Z,23.43
2018-04-28T12:24:11.738Z,23.12
2018-04-28T12:25:12.692Z,22.69
2018-04-28T12:26:11.703Z,22.41
2018-04-28T12:27:12.241Z,22.12
2018-04-28T12:28:12.193Z,22.43
2018-04-28T12:29:16.201Z,22.74
2018-04-28T12:30:10.786Z,23.02
2018-04-28T12:31:12.703Z,23.38
2018-04-28T12:32:14.704Z,23.77
2018-04-28T12:33:11.294Z,23.72
2018-04-28T12:34:11.549Z,23.98
2018-04-28T12:35:11.656Z,24.07
2018-04-28T12:36:11.881Z,23.89
2018-04-28T12:37:12.140Z,23.87
2018-04-28T12:38:12.265Z,23.53
2018-04-28T12:39:14.207Z,23.67
2018-04-28T12:40:15.217Z,23.87
2018-04-28T12:41:14.694Z,24.22
2018-04-28T12:42:13.052Z,24.34
2018-04-28T12:43:13.270Z,24.80
2018-04-28T12:44:13.484Z,24.76
2018-04-28T12:45:15.202Z,25.15
2018-04-28T12:46:16.742Z,25.47
2018-04-28T12:47:15.123Z,25.17
2018-04-28T12:48:16.199Z,25.13
2018-04-28T12:49:17.206Z,25.12
2018-04-28T12:50:17.204Z,25.06
2018-04-28T12:51:17.198Z,24.82
2018-04-28T12:52:14.923Z,24.77
2018-04-28T12:53:17.694Z,24.83
2018-04-28T12:54:31.205Z,24.77
2018-04-28T12:55:27.212Z,24.59
2018-04-28T12:56:15.666Z,24.52
2018-04-28T12:57:15.897Z,24.45
2018-04-28T12:58:39.699Z,24.04
2018-04-28T12:59:21.180Z,23.83
2018-04-28T13:00:18.195Z,23.60
2018-04-28T13:01:18.209Z,23.27
2018-04-28T13:02:16.676Z,23.35
2018-04-28T13:03:16.898Z,23.45
2018-04-28T13:04:17.140Z,23.50
2018-04-28T13:05:19.225Z,23.52
2018-04-28T13:06:19.202Z,23.67
2018-04-28T13:07:17.691Z,23.83